Time;durP1;ratioP1;P1;durP2;ratioP2;P2;SDS_P1;SDS_P2;PMS_P1;PMS_P2;Temp;Humidity;BMP_temperature;BMP_pressure;BME280_temperature;BME280_humidity;BME280_pressure;Samples;Min_cycle;Max_cycle;Signal;HPM_P1;HPM_P2
2022/01/06 00:00:33;;;;;;;;;8.40;7.00;;;;;8.49;43.15;97643.81;6209739;28;96891;-67
2022/01/06 00:03:36;;;;;;;;;6.00;5.50;;;;;8.44;43.01;97646.38;6207869;28;97999;-67
2022/01/06 00:06:42;;;;;;;;;9.00;7.40;;;;;8.56;43.15;97636.41;6227968;28;96875;-68
2022/01/06 00:09:47;;;;;;;;;6.00;6.00;;;;;8.64;43.01;97642.25;6213230;28;96673;-71
2022/01/06 00:13:05;;;;;;;;;7.40;6.00;;;;;8.67;43.07;97631.00;6213698;28;97400;-71
2022/01/06 00:16:16;;;;;;;;;6.00;6.00;;;;;8.80;42.61;97646.00;6214053;28;96568;-68
2022/01/06 00:26:03;;;;;;;;;6.00;5.00;;;;;8.79;42.63;97636.34;6212036;28;97094;-70
2022/01/06 00:29:07;;;;;;;;;8.00;6.40;;;;;8.79;42.43;97636.34;6247040;27;97490;-72
2022/01/06 00:32:12;;;;;;;;;7.25;6.00;;;;;8.76;42.48;97630.59;6212681;28;96968;-69
2022/01/06 00:35:15;;;;;;;;;7.25;6.25;;;;;8.87;42.47;97645.88;6210851;28;99447;-72
2022/01/06 00:38:18;;;;;;;;;6.20;5.40;;;;;8.87;42.10;97649.38;6212845;28;96674;-72
2022/01/06 00:41:22;;;;;;;;;5.60;5.00;;;;;8.90;42.29;97650.75;6212605;28;99579;-71
2022/01/06 00:44:25;;;;;;;;;7.60;6.00;;;;;8.97;42.39;97656.81;6213148;28;97357;-69
2022/01/06 00:47:30;;;;;;;;;6.00;6.00;;;;;9.01;42.32;97674.06;6211420;28;97009;-72
2022/01/06 00:50:33;;;;;;;;;5.40;5.00;;;;;8.96;42.01;97669.44;6210407;28;97459;-71
2022/01/06 00:53:37;;;;;;;;;6.80;5.20;;;;;8.96;42.15;97679.34;6213040;28;97044;-69
2022/01/06 00:56:40;;;;;;;;;6.00;5.00;;;;;9.07;42.37;97673.13;6213601;28;96539;-71
2022/01/06 00:59:44;;;;;;;;;6.40;5.00;;;;;9.07;41.95;97662.38;6212888;28;96585;-72
2022/01/06 01:02:48;;;;;;;;;5.00;4.00;;;;;9.12;42.16;97652.53;6212208;28;97436;-72
2022/01/06 01:05:54;;;;;;;;;4.00;4.00;;;;;9.22;41.94;97648.38;6210808;28;98438;-72
2022/01/06 01:08:58;;;;;;;;;6.00;5.80;;;;;9.17;42.01;97646.41;6214707;28;96569;-69
2022/01/06 01:12:03;;;;;;;;;5.00;4.00;;;;;9.24;41.72;97639.00;6211518;28;96939;-72
2022/01/06 01:15:09;;;;;;;;;6.00;5.00;;;;;9.22;41.61;97637.63;6213600;28;96562;-69
2022/01/06 01:18:18;;;;;;;;;6.00;6.00;;;;;9.27;41.84;97651.16;6214650;28;97509;-69
2022/01/06 01:21:22;;;;;;;;;6.75;5.00;;;;;9.26;41.77;97650.34;6204655;28;96615;-69
2022/01/06 01:24:26;;;;;;;;;5.00;5.00;;;;;9.20;41.82;97658.53;6197994;28;96834;-69
2022/01/06 01:27:34;;;;;;;;;4.00;4.00;;;;;9.17;41.75;97657.16;6211706;28;97480;-72
2022/01/06 01:30:51;;;;;;;;;5.60;5.00;;;;;9.14;42.03;97653.06;6213029;28;96411;-69
2022/01/06 01:33:59;;;;;;;;;4.00;4.00;;;;;9.11;41.94;97636.63;6212788;28;96596;-69
2022/01/06 01:37:03;;;;;;;;;5.40;4.40;;;;;9.09;41.94;97636.03;6211328;28;96601;-69
2022/01/06 01:40:10;;;;;;;;;4.00;4.00;;;;;9.02;41.77;97638.91;6212721;28;96662;-70
2022/01/06 01:43:13;;;;;;;;;4.80;4.80;;;;;9.12;42.03;97636.38;6211521;28;97073;-72
2022/01/06 01:46:19;;;;;;;;;5.40;5.00;;;;;9.17;41.79;97642.91;6195044;28;99763;-72
2022/01/06 01:49:32;;;;;;;;;5.00;5.00;;;;;9.18;41.69;97650.75;6212565;28;98057;-69
2022/01/06 01:52:36;;;;;;;;;4.00;4.00;;;;;9.16;41.84;97643.97;6211384;28;97481;-72
2022/01/06 01:55:42;;;;;;;;;5.00;5.00;;;;;9.16;41.79;97642.09;6210795;28;96861;-69
2022/01/06 01:58:45;;;;;;;;;5.00;5.00;;;;;9.11;41.76;97636.63;6211117;28;96597;-69
2022/01/06 02:01:48;;;;;;;;;4.00;4.00;;;;;9.09;42.09;97642.22;6212114;28;97705;-69
2022/01/06 02:04:53;;;;;;;;;4.00;4.00;;;;;9.07;41.88;97648.94;6212224;28;96950;-69
2022/01/06 02:07:59;;;;;;;;;4.80;3.20;;;;;9.05;42.02;97645.66;6212968;28;96408;-69
2022/01/06 02:11:02;;;;;;;;;5.00;4.25;;;;;9.05;41.95;97654.53;6195387;28;97002;-69
2022/01/06 02:14:06;;;;;;;;;3.00;3.00;;;;;9.06;41.78;97656.19;6210328;28;99492;-72
2022/01/06 02:17:10;;;;;;;;;2.80;2.80;;;;;9.01;41.93;97663.31;6203813;28;98297;-72
2022/01/06 02:20:17;;;;;;;;;3.40;3.00;;;;;9.00;41.87;97669.75;6186838;28;96673;-69
2022/01/06 02:23:21;;;;;;;;;4.00;3.25;;;;;8.94;42.25;97665.38;6188926;28;96982;-71
2022/01/06 02:26:24;;;;;;;;;5.00;4.00;;;;;8.97;42.15;97656.81;6210820;28;97858;-68
2022/01/06 02:29:27;;;;;;;;;2.40;2.40;;;;;8.96;42.02;97665.91;6213093;28;97513;-69
2022/01/06 02:32:31;;;;;;;;;5.00;3.75;;;;;8.95;42.22;97667.78;6210992;28;97949;-69
2022/01/06 02:35:35;;;;;;;;;4.25;4.00;;;;;8.92;42.20;97672.84;6210732;28;99847;-72
2022/01/06 02:38:38;;;;;;;;;4.00;3.00;;;;;8.94;42.28;97678.81;6211243;28;96406;-72
2022/01/06 02:41:42;;;;;;;;;5.00;4.00;;;;;8.90;42.17;97678.44;6211235;28;97014;-72
2022/01/06 02:44:45;;;;;;;;;3.00;3.00;;;;;8.95;42.12;97681.22;6193254;28;97771;-69
2022/01/06 02:47:49;;;;;;;;;4.00;4.00;;;;;8.98;42.14;97671.88;6209178;28;99662;-71
2022/01/06 02:50:54;;;;;;;;;5.40;3.40;;;;;9.00;42.11;97673.25;6211112;28;96481;-72
2022/01/06 02:53:57;;;;;;;;;2.00;2.00;;;;;9.00;42.07;97667.88;6209700;28;96688;-69
2022/01/06 02:57:03;;;;;;;;;3.00;3.00;;;;;9.09;42.11;97665.63;6196016;28;97785;-69
2022/01/06 03:00:08;;;;;;;;;4.00;3.60;;;;;9.06;42.28;97666.94;6213774;28;96421;-69
2022/01/06 03:03:11;;;;;;;;;3.00;3.00;;;;;9.10;41.98;97672.63;6212989;28;97063;-69
2022/01/06 03:06:16;;;;;;;;;3.80;2.80;;;;;9.19;41.71;97678.44;6210828;28;99419;-69
2022/01/06 03:09:25;;;;;;;;;4.00;3.00;;;;;9.18;41.98;97671.44;6214408;28;96388;-72
2022/01/06 03:12:33;;;;;;;;;5.00;3.00;;;;;9.23;41.94;97668.84;6215228;28;97432;-69
2022/01/06 03:15:37;;;;;;;;;3.00;2.00;;;;;9.22;42.05;97672.56;6217954;28;97426;-73
2022/01/06 03:18:40;;;;;;;;;4.00;3.00;;;;;9.23;42.05;97664.28;6217047;28;96314;-70
2022/01/06 03:21:44;;;;;;;;;2.60;2.20;;;;;9.28;42.09;97668.94;6216291;28;97025;-68
2022/01/06 03:24:48;;;;;;;;;3.20;3.20;;;;;9.33;41.89;97669.84;6217775;28;96671;-70
2022/01/06 03:27:51;;;;;;;;;3.00;3.00;;;;;9.33;41.76;97677.91;6217062;28;96953;-71
2022/01/06 03:30:58;;;;;;;;;3.75;3.00;;;;;9.37;41.80;97668.28;6217646;28;97365;-68
2022/01/06 03:34:01;;;;;;;;;4.00;4.00;;;;;9.33;41.83;97664.44;6215495;28;97242;-68
2022/01/06 03:37:06;;;;;;;;;4.00;4.00;;;;;9.40;42.04;97669.66;6216899;28;96467;-70
2022/01/06 03:40:11;;;;;;;;;3.00;3.00;;;;;9.43;41.91;97682.63;6217518;28;97084;-70
2022/01/06 03:43:14;;;;;;;;;5.20;4.20;;;;;9.45;42.00;97675.94;6214771;28;96554;-70
2022/01/06 03:46:17;;;;;;;;;4.00;4.00;;;;;9.42;41.84;97687.19;6204365;28;96727;-69
2022/01/06 03:49:21;;;;;;;;;4.33;4.00;;;;;9.48;41.97;97677.34;6231486;28;96993;-69
2022/01/06 03:52:26;;;;;;;;;5.00;4.00;;;;;9.46;41.87;97677.56;6210069;28;96900;-68
2022/01/06 03:55:29;;;;;;;;;3.00;3.00;;;;;9.49;41.80;97676.25;6242117;27;96646;-70
2022/01/06 03:58:32;;;;;;;;;4.00;4.00;;;;;9.49;41.82;97674.38;6216175;28;97560;-68
2022/01/06 04:01:36;;;;;;;;;4.60;4.00;;;;;9.47;41.93;97665.75;6215433;28;97954;-71
2022/01/06 04:04:39;;;;;;;;;3.00;3.00;;;;;9.49;42.09;97671.69;6202032;28;99444;-71
2022/01/06 04:07:44;;;;;;;;;3.00;3.00;;;;;9.48;42.06;97678.13;6213586;28;98501;-71
2022/01/06 04:10:48;;;;;;;;;5.00;4.50;;;;;9.47;42.01;97681.91;6216139;28;97449;-68
2022/01/06 04:13:51;;;;;;;;;4.00;3.20;;;;;9.32;41.61;97657.44;6214648;28;99978;-72
2022/01/06 04:16:59;;;;;;;;;3.00;3.00;;;;;9.45;41.94;97689.38;6215484;28;99416;-71
2022/01/06 04:20:07;;;;;;;;;4.20;3.20;;;;;9.53;42.02;97690.84;6215445;28;97093;-72
2022/01/06 04:23:11;;;;;;;;;4.00;3.00;;;;;9.50;41.89;97694.03;6216381;28;96380;-70
2022/01/06 04:26:15;;;;;;;;;4.20;4.00;;;;;9.53;41.74;97691.66;6216697;28;96974;-71
2022/01/06 04:29:19;;;;;;;;;3.00;3.00;;;;;9.52;41.74;97695.44;6199015;28;97765;-71
2022/01/06 04:32:22;;;;;;;;;3.80;3.80;;;;;9.51;41.73;97707.25;6218837;28;97558;-70
2022/01/06 04:35:25;;;;;;;;;4.20;3.00;;;;;9.43;41.62;97696.88;6216939;28;97414;-69
2022/01/06 04:38:30;;;;;;;;;4.00;3.00;;;;;9.47;41.67;97702.59;6212752;28;96453;-72
2022/01/06 04:41:33;;;;;;;;;3.80;3.20;;;;;9.48;41.58;97696.97;6214735;28;97977;-72
2022/01/06 04:44:36;;;;;;;;;3.00;2.00;;;;;9.46;41.52;97707.16;6214957;28;96537;-70
2022/01/06 04:47:40;;;;;;;;;3.00;2.40;;;;;9.43;41.40;97715.69;6246900;27;96922;-69
2022/01/06 04:50:43;;;;;;;;;3.00;3.00;;;;;9.34;41.57;97714.47;6213085;28;96590;-71
2022/01/06 04:53:48;;;;;;;;;3.00;3.00;;;;;9.42;41.69;97711.41;6213628;28;100037;-70
2022/01/06 04:56:51;;;;;;;;;3.00;3.00;;;;;9.39;41.53;97721.81;6212749;28;97893;-71
2022/01/06 04:59:55;;;;;;;;;3.00;3.00;;;;;9.45;41.51;97728.91;6213398;28;98533;-68
2022/01/06 05:03:02;;;;;;;;;3.60;3.00;;;;;9.50;41.48;97729.81;6205685;28;96655;-70
2022/01/06 05:06:06;;;;;;;;;3.00;3.00;;;;;9.41;41.51;97719.72;6209965;28;96917;-71
2022/01/06 05:09:10;;;;;;;;;3.80;3.80;;;;;9.56;41.49;97730.72;6197197;28;97772;-70
2022/01/06 05:12:13;;;;;;;;;5.00;4.00;;;;;9.53;41.53;97731.19;6211744;28;97355;-70
2022/01/06 05:15:17;;;;;;;;;2.00;2.00;;;;;9.54;41.48;97735.53;6231472;28;96589;-70
2022/01/06 05:18:20;;;;;;;;;5.00;4.00;;;;;9.54;41.42;97732.84;6214853;28;98523;-69
2022/01/06 05:21:28;;;;;;;;;5.00;4.33;;;;;9.51;41.50;97722.56;6212027;28;97627;-72
2022/01/06 05:24:35;;;;;;;;;2.40;2.00;;;;;9.50;41.62;97729.81;6215815;28;96999;-72
2022/01/06 05:27:39;;;;;;;;;3.00;2.60;;;;;9.56;41.69;97731.56;6224018;27;96774;-69
2022/01/06 05:30:43;;;;;;;;;2.00;2.00;;;;;9.47;41.58;97734.88;6212232;28;96364;-69
2022/01/06 05:33:47;;;;;;;;;4.00;3.00;;;;;9.56;41.58;97742.31;6225936;28;97438;-70
2022/01/06 05:36:50;;;;;;;;;3.25;3.00;;;;;9.58;41.72;97737.50;6213925;28;97248;-69
2022/01/06 05:39:54;;;;;;;;;3.20;3.20;;;;;9.54;41.64;97739.03;6192575;28;98423;-69
2022/01/06 05:42:58;;;;;;;;;3.50;3.50;;;;;9.56;41.52;97741.50;6206633;28;98906;-72
2022/01/06 05:46:01;;;;;;;;;4.00;4.00;;;;;9.59;41.85;97749.06;6216880;28;96702;-72
2022/01/06 05:49:05;;;;;;;;;5.00;4.40;;;;;9.47;41.70;97727.63;6212540;28;97409;-69
2022/01/06 05:52:08;;;;;;;;;4.00;4.00;;;;;9.58;41.76;97748.25;6212288;28;97443;-71
2022/01/06 05:55:13;;;;;;;;;3.60;3.60;;;;;9.66;41.94;97743.53;6213764;28;96367;-69
2022/01/06 05:58:17;;;;;;;;;5.00;4.20;;;;;9.54;41.78;97762.44;6214134;28;98329;-69
2022/01/06 06:01:20;;;;;;;;;3.00;3.00;;;;;9.56;42.08;97752.25;6215967;28;96444;-73
2022/01/06 06:04:23;;;;;;;;;5.00;5.00;;;;;9.54;42.14;97751.66;6213059;28;96769;-70
2022/01/06 06:07:27;;;;;;;;;5.00;4.00;;;;;9.49;42.26;97759.66;6250071;27;100061;-72
2022/01/06 06:10:35;;;;;;;;;6.00;5.00;;;;;9.49;42.26;97755.09;6212963;28;98556;-69
2022/01/06 06:13:38;;;;;;;;;5.00;4.50;;;;;9.62;42.10;97758.53;6213037;28;98535;-69
2022/01/06 06:16:42;;;;;;;;;4.60;4.60;;;;;9.66;41.71;97757.81;6210663;28;96915;-69
2022/01/06 06:19:45;;;;;;;;;4.00;4.00;;;;;9.61;41.97;97762.28;6212068;28;98542;-69
2022/01/06 06:22:48;;;;;;;;;3.00;3.00;;;;;9.53;42.00;97763.47;6212620;28;97518;-69
2022/01/06 06:25:53;;;;;;;;;4.40;4.40;;;;;9.52;41.78;97770.75;6214897;28;97626;-71
2022/01/06 06:28:56;;;;;;;;;3.00;3.00;;;;;9.53;41.70;97774.25;6213078;28;96826;-71
2022/01/06 06:31:59;;;;;;;;;4.40;4.00;;;;;9.55;41.81;97778.34;6211740;28;96522;-72
2022/01/06 06:35:04;;;;;;;;;4.00;3.00;;;;;9.51;42.06;97784.44;6214680;28;97494;-71
2022/01/06 06:38:07;;;;;;;;;3.00;2.20;;;;;9.58;41.85;97782.41;6214668;28;96891;-69
2022/01/06 06:41:12;;;;;;;;;3.00;3.00;;;;;9.66;41.66;97784.72;6212629;28;96616;-69
2022/01/06 06:44:15;;;;;;;;;3.20;2.80;;;;;9.56;41.65;97788.06;6212768;28;97075;-69
2022/01/06 06:47:18;;;;;;;;;3.60;3.00;;;;;9.49;41.51;97771.22;6214122;28;96512;-70
2022/01/06 06:50:22;;;;;;;;;2.00;2.00;;;;;9.55;41.38;97786.41;6214247;28;97396;-71
2022/01/06 06:53:25;;;;;;;;;3.00;3.00;;;;;9.65;41.21;97776.88;6215061;28;97354;-71
2022/01/06 06:56:30;;;;;;;;;3.60;3.60;;;;;9.71;41.36;97784.81;6211285;28;97038;-71
2022/01/06 06:59:33;;;;;;;;;4.00;2.00;;;;;9.66;41.39;97792.81;6212485;28;97703;-72
2022/01/06 07:02:36;;;;;;;;;4.00;3.00;;;;;9.44;41.32;97768.44;6212361;28;96740;-72
2022/01/06 07:05:40;;;;;;;;;4.00;3.00;;;;;9.62;41.54;97797.03;6232718;28;97195;-69
2022/01/06 07:08:43;;;;;;;;;2.00;2.00;;;;;9.62;41.66;97804.28;6214662;28;97512;-71
2022/01/06 07:11:48;;;;;;;;;4.00;4.00;;;;;9.68;41.73;97804.13;6215710;28;99378;-68
2022/01/06 07:14:51;;;;;;;;;4.20;4.20;;;;;9.80;41.83;97804.06;6214098;28;96428;-68
2022/01/06 07:17:55;;;;;;;;;3.00;3.00;;;;;9.84;41.95;97810.59;6213908;28;97529;-71
2022/01/06 07:20:58;;;;;;;;;3.60;3.00;;;;;9.91;41.99;97817.47;6212372;28;98358;-71
2022/01/06 07:24:05;;;;;;;;;4.00;4.00;;;;;9.94;41.84;97816.16;6212472;28;98485;-69
2022/01/06 07:27:09;;;;;;;;;3.00;3.00;;;;;10.01;41.76;97819.50;6248051;27;96476;-69
2022/01/06 07:30:13;;;;;;;;;4.00;4.00;;;;;9.99;42.13;97821.63;6212704;28;97457;-68
2022/01/06 07:33:16;;;;;;;;;6.40;6.00;;;;;9.93;42.15;97818.03;6212130;28;98599;-69
2022/01/06 07:36:20;;;;;;;;;6.00;5.00;;;;;10.05;42.21;97823.34;6210929;28;96675;-68
2022/01/06 07:39:23;;;;;;;;;5.00;4.00;;;;;9.89;42.28;97832.22;6211314;28;98172;-72
2022/01/06 07:42:28;;;;;;;;;7.80;4.20;;;;;9.89;42.59;97829.53;6212334;28;98122;-71
2022/01/06 07:45:31;;;;;;;;;5.00;5.00;;;;;9.93;42.75;97839.56;6212338;28;99494;-72
2022/01/06 07:48:48;;;;;;;;;5.00;4.00;;;;;9.81;42.88;97836.13;6210280;28;98978;-71
2022/01/06 07:51:51;;;;;;;;;5.40;5.00;;;;;9.95;43.02;97844.72;6227604;28;97292;-69
2022/01/06 07:54:54;;;;;;;;;4.00;4.00;;;;;9.89;43.32;97851.06;6216621;28;96716;-71
2022/01/06 07:57:59;;;;;;;;;5.00;4.00;;;;;9.93;43.47;97853.03;6212481;28;96546;-68
2022/01/06 08:01:03;;;;;;;;;3.20;3.20;;;;;9.97;43.73;97856.84;6218381;28;97421;-69
2022/01/06 08:04:08;;;;;;;;;5.00;5.00;;;;;9.95;44.13;97850.09;6216442;28;97856;-71
2022/01/06 08:07:12;;;;;;;;;4.00;4.00;;;;;9.78;44.79;97850.06;6216541;28;97124;-68
2022/01/06 08:10:16;;;;;;;;;5.00;5.00;;;;;9.74;45.22;97854.28;6215258;28;96453;-71
2022/01/06 08:13:20;;;;;;;;;6.40;6.00;;;;;9.61;45.71;97870.75;6247734;27;96513;-68
2022/01/06 08:16:23;;;;;;;;;5.20;5.20;;;;;9.53;46.55;97874.63;6213802;28;97859;-69
2022/01/06 08:19:27;;;;;;;;;7.40;7.00;;;;;9.54;46.76;97876.25;6198613;28;98739;-72
2022/01/06 08:22:31;;;;;;;;;7.00;7.00;;;;;9.51;46.75;97878.63;6216353;28;96601;-68
2022/01/06 08:25:35;;;;;;;;;6.00;5.00;;;;;9.36;47.31;97881.81;6217303;28;97409;-72
2022/01/06 08:28:39;;;;;;;;;7.00;6.60;;;;;9.39;47.12;97891.28;6215738;28;96934;-70
2022/01/06 08:31:43;;;;;;;;;7.00;7.00;;;;;9.23;47.54;97900.09;6233780;28;96750;-70
2022/01/06 08:34:46;;;;;;;;;7.00;7.00;;;;;9.29;47.76;97899.94;6229511;28;96664;-71
2022/01/06 08:37:50;;;;;;;;;7.00;7.00;;;;;9.13;48.19;97906.91;6217869;27;97013;-70
2022/01/06 08:40:53;;;;;;;;;8.00;7.00;;;;;9.09;48.50;97902.19;6214602;28;99462;-69
2022/01/06 08:43:58;;;;;;;;;7.00;7.00;;;;;9.19;48.62;97907.00;6215318;28;97678;-70
2022/01/06 08:47:01;;;;;;;;;9.00;7.50;;;;;9.18;48.68;97910.75;6216343;28;96969;-72
2022/01/06 08:50:06;;;;;;;;;8.00;7.00;;;;;9.18;48.82;97918.81;6216226;28;97026;-68
2022/01/06 08:53:09;;;;;;;;;6.80;6.00;;;;;9.16;48.99;97923.59;6232029;28;96614;-72
2022/01/06 08:56:12;;;;;;;;;8.40;7.00;;;;;9.17;48.94;97909.09;6206300;28;98808;-68
2022/01/06 08:59:17;;;;;;;;;8.50;7.50;;;;;9.12;49.26;97916.00;6209868;28;97745;-70
2022/01/06 09:02:20;;;;;;;;;7.00;7.00;;;;;9.07;49.34;97912.38;6216207;28;96696;-72
2022/01/06 09:05:24;;;;;;;;;9.00;8.00;;;;;9.17;49.08;97918.00;6207942;28;96602;-68
2022/01/06 09:08:27;;;;;;;;;9.00;8.00;;;;;9.05;49.23;97911.78;6199469;28;98523;-71
2022/01/06 09:11:30;;;;;;;;;7.00;6.20;;;;;9.30;49.01;97912.34;6212213;28;97142;-68
2022/01/06 09:14:35;;;;;;;;;7.00;6.00;;;;;9.51;48.36;97914.41;6214072;28;97891;-69
2022/01/06 09:17:39;;;;;;;;;7.40;7.00;;;;;9.41;48.00;97910.69;6244262;27;97477;-71
2022/01/06 09:20:42;;;;;;;;;6.00;6.00;;;;;9.39;47.93;97894.78;6202574;28;96529;-68
2022/01/06 09:23:46;;;;;;;;;7.67;7.00;;;;;9.74;47.26;97915.38;6219992;28;97849;-70
2022/01/06 09:26:49;;;;;;;;;6.20;6.00;;;;;9.54;47.63;97930.06;6220484;28;97070;-69
2022/01/06 09:29:54;;;;;;;;;7.00;7.00;;;;;9.55;47.39;97926.31;6201027;28;97148;-70
2022/01/06 09:32:57;;;;;;;;;7.40;6.80;;;;;9.62;47.49;97918.13;6205740;28;97252;-71
2022/01/06 09:36:00;;;;;;;;;9.00;7.00;;;;;9.66;47.49;97924.66;6222404;28;97103;-70
2022/01/06 09:39:06;;;;;;;;;7.00;6.50;;;;;9.73;47.03;97925.31;6202006;28;97470;-70
2022/01/06 09:42:10;;;;;;;;;8.40;7.40;;;;;9.72;46.91;97930.97;6203846;28;97059;-69
2022/01/06 09:45:15;;;;;;;;;7.00;7.00;;;;;9.85;46.86;97920.72;6202443;28;97344;-70
2022/01/06 09:48:20;;;;;;;;;8.40;6.60;;;;;9.88;46.45;97916.72;6199188;28;96624;-71
2022/01/06 09:51:25;;;;;;;;;9.00;8.00;;;;;10.08;46.05;97927.88;6199657;28;97179;-69
2022/01/06 09:54:28;;;;;;;;;8.00;7.00;;;;;10.17;45.25;97918.38;6198071;28;97021;-72
2022/01/06 09:57:31;;;;;;;;;9.00;9.00;;;;;10.38;44.88;97919.53;6193289;28;96962;-68
2022/01/06 10:00:37;;;;;;;;;9.50;8.00;;;;;10.42;44.12;97909.91;6204325;28;97490;-72
2022/01/06 10:03:44;;;;;;;;;6.00;6.00;;;;;10.56;43.74;97918.47;6209914;28;96628;-70
2022/01/06 10:06:58;;;;;;;;;8.00;7.00;;;;;11.39;42.91;97920.22;6235848;27;97206;-68
2022/01/06 10:10:06;;;;;;;;;8.00;8.00;;;;;11.68;41.67;97913.56;6214878;28;97602;-72
2022/01/06 10:13:16;;;;;;;;;7.00;7.00;;;;;11.93;40.71;97916.59;6230346;28;97985;-72
2022/01/06 10:16:21;;;;;;;;;8.00;8.00;;;;;11.91;40.78;97924.16;6227589;28;96542;-71
2022/01/06 10:19:26;;;;;;;;;7.00;7.00;;;;;11.84;40.54;97923.53;6216263;28;97944;-71
2022/01/06 10:22:29;;;;;;;;;8.00;7.50;;;;;11.83;40.45;97921.88;6217873;28;97426;-70
2022/01/06 10:25:38;;;;;;;;;5.60;5.60;;;;;11.85;40.54;97924.34;6245874;27;96951;-71
2022/01/06 10:28:56;;;;;;;;;8.40;7.00;;;;;11.84;40.32;97922.69;6241568;27;96958;-72
2022/01/06 10:32:09;;;;;;;;;7.00;6.80;;;;;11.81;39.75;97920.53;6196347;28;98384;-72
2022/01/06 10:35:20;;;;;;;;;6.00;5.00;;;;;11.73;39.37;97933.38;6217785;28;97438;-72
2022/01/06 10:38:27;;;;;;;;;7.00;6.60;;;;;11.69;39.48;97934.09;6212052;28;99634;-72
2022/01/06 10:41:31;;;;;;;;;7.40;6.00;;;;;11.21;39.87;97899.78;6191763;28;99848;-73
2022/01/06 10:44:34;;;;;;;;;8.00;8.00;;;;;11.15;40.05;97906.16;6209162;28;97076;-72
2022/01/06 10:47:40;;;;;;;;;7.00;6.40;;;;;11.25;40.35;97935.97;6199622;28;99009;-69
2022/01/06 10:50:43;;;;;;;;;7.80;7.00;;;;;11.06;41.17;97946.22;6207437;28;100111;-70
2022/01/06 10:53:50;;;;;;;;;7.25;7.00;;;;;10.74;43.27;97961.38;6208446;28;96613;-71
2022/01/06 10:57:02;;;;;;;;;6.60;6.60;;;;;10.58;45.36;97984.56;6194819;28;97445;-68
2022/01/06 11:00:07;;;;;;;;;6.00;6.00;;;;;10.25;46.37;97977.25;6210679;28;98759;-69
2022/01/06 11:03:13;;;;;;;;;6.00;5.60;;;;;9.99;47.23;97967.03;6209284;28;97582;-72
2022/01/06 11:06:16;;;;;;;;;5.60;5.40;;;;;9.99;47.66;97965.16;6209063;28;96536;-69
2022/01/06 11:09:20;;;;;;;;;7.00;6.00;;;;;10.17;47.37;97976.78;6209349;28;98119;-72
2022/01/06 11:12:31;;;;;;;;;7.00;6.00;;;;;10.37;46.67;97969.91;6208339;28;96671;-74
2022/01/06 11:15:36;;;;;;;;;8.40;8.00;;;;;10.48;46.71;97979.00;6207981;28;98403;-73
2022/01/06 11:18:42;;;;;;;;;7.33;7.00;;;;;10.47;46.49;97980.03;6205573;28;98703;-73
2022/01/06 11:21:49;;;;;;;;;8.00;8.00;;;;;10.18;46.86;97968.47;6206398;28;97010;-73
2022/01/06 11:24:53;;;;;;;;;5.00;5.00;;;;;10.14;44.37;97996.13;6208200;28;97099;-69
2022/01/06 11:28:02;;;;;;;;;5.00;5.00;;;;;9.64;43.87;97975.19;6204317;28;96572;-70
2022/01/06 11:31:16;;;;;;;;;5.00;5.00;;;;;9.51;44.37;97987.06;6204962;28;97544;-71
2022/01/06 11:34:21;;;;;;;;;5.00;5.00;;;;;9.55;43.16;97992.78;6209754;28;97418;-69
2022/01/06 11:37:25;;;;;;;;;5.00;5.00;;;;;9.30;43.26;97995.72;6206955;28;97330;-69
2022/01/06 11:40:31;;;;;;;;;7.00;7.00;;;;;9.41;42.87;98005.66;6204452;28;97414;-69
2022/01/06 11:43:36;;;;;;;;;4.60;4.60;;;;;9.76;42.29;98021.75;6200073;28;96584;-72
2022/01/06 11:46:43;;;;;;;;;7.50;6.00;;;;;9.78;41.55;98005.34;6204627;28;97104;-70
2022/01/06 11:49:48;;;;;;;;;6.25;5.25;;;;;9.93;40.92;98014.56;6213303;28;97386;-68
2022/01/06 11:52:53;;;;;;;;;6.00;6.00;;;;;9.86;41.02;98015.75;6195988;28;97579;-71
2022/01/06 11:55:57;;;;;;;;;6.00;5.00;;;;;9.83;40.82;98018.91;6188078;28;97245;-70
2022/01/06 11:59:02;;;;;;;;;5.00;5.00;;;;;9.77;41.51;98044.13;6199422;28;97281;-72
2022/01/06 12:02:05;;;;;;;;;5.33;5.00;;;;;9.78;41.88;98043.84;6199087;28;96436;-68
2022/01/06 12:05:10;;;;;;;;;6.00;5.60;;;;;9.75;40.95;98063.19;6210119;28;97511;-71
2022/01/06 12:08:14;;;;;;;;;7.00;6.00;;;;;9.61;41.25;98055.59;6198081;28;96980;-72
2022/01/06 12:11:22;;;;;;;;;9.60;8.20;;;;;9.65;41.57;98064.81;6218285;28;98925;-72
2022/01/06 12:14:27;;;;;;;;;7.00;6.00;;;;;9.05;40.19;97997.81;6194965;28;96631;-69
2022/01/06 12:17:30;;;;;;;;;7.00;6.40;;;;;9.52;40.66;98069.41;6209459;28;97377;-70
2022/01/06 12:20:35;;;;;;;;;6.00;5.60;;;;;9.26;40.66;98083.31;6196687;28;98439;-69
2022/01/06 12:23:38;;;;;;;;;6.40;6.00;;;;;9.12;40.21;98081.91;6209070;28;96736;-71
2022/01/06 12:26:42;;;;;;;;;5.00;5.00;;;;;9.14;40.17;98066.34;6209986;28;97500;-69
2022/01/06 12:29:45;;;;;;;;;3.75;3.75;;;;;9.21;40.14;98090.44;6211329;28;97004;-71
2022/01/06 12:32:58;;;;;;;;;3.00;3.00;;;;;9.18;39.84;98088.22;6212915;28;96679;-73
2022/01/06 12:36:02;;;;;;;;;5.00;5.00;;;;;9.25;39.71;98096.97;6212494;28;100094;-69
2022/01/06 12:39:10;;;;;;;;;6.00;5.00;;;;;9.24;39.60;98117.69;6211937;28;98017;-72
2022/01/06 12:42:14;;;;;;;;;6.00;5.60;;;;;9.25;39.82;98108.56;6215189;28;96581;-69
2022/01/06 12:45:17;;;;;;;;;5.00;5.00;;;;;9.29;39.91;98120.50;6212064;28;96787;-69
2022/01/06 12:48:29;;;;;;;;;7.50;6.00;;;;;9.39;39.33;98117.22;6215460;28;97556;-71
2022/01/06 12:51:37;;;;;;;;;8.00;7.00;;;;;9.46;38.34;98121.47;6213920;28;96572;-69
2022/01/06 12:54:43;;;;;;;;;6.75;6.00;;;;;9.54;37.66;98126.47;6213235;28;96877;-70
2022/01/06 12:57:51;;;;;;;;;7.00;6.60;;;;;9.57;37.34;98144.06;6212602;28;97407;-71
2022/01/06 13:01:00;;;;;;;;;6.00;6.00;;;;;9.43;36.49;98153.41;6202348;28;96839;-69
2022/01/06 13:04:05;;;;;;;;;6.00;6.00;;;;;9.48;37.11;98140.88;6211562;28;97034;-69
2022/01/06 13:07:12;;;;;;;;;6.40;6.00;;;;;9.25;37.46;98159.66;6230078;27;98280;-72
2022/01/06 13:10:18;;;;;;;;;7.00;6.00;;;;;9.14;38.19;98171.19;6212691;28;99075;-71
2022/01/06 13:13:21;;;;;;;;;6.00;5.00;;;;;9.14;38.63;98196.22;6205909;28;97405;-71
2022/01/06 13:16:27;;;;;;;;;7.00;5.00;;;;;9.04;40.38;98204.03;6198530;28;98567;-69
2022/01/06 13:19:31;;;;;;;;;5.00;5.00;;;;;8.99;41.05;98213.84;6194401;28;97616;-71
2022/01/06 13:23:00;;;;;;;;;5.00;4.00;;;;;9.01;40.91;98223.31;6186415;28;97122;-70
2022/01/06 13:26:07;;;;;;;;;5.00;5.00;;;;;8.84;40.87;98233.06;6199557;28;97570;-73
2022/01/06 13:29:12;;;;;;;;;4.20;4.00;;;;;8.75;40.67;98247.84;6208934;28;98062;-68
2022/01/06 13:32:20;;;;;;;;;4.60;3.60;;;;;8.47;40.26;98221.50;6212006;28;96622;-69
2022/01/06 13:35:24;;;;;;;;;5.50;4.75;;;;;8.63;39.57;98266.59;6212693;28;96976;-69
2022/01/06 13:38:31;;;;;;;;;5.00;4.33;;;;;8.58;39.06;98277.19;6196323;28;97125;-68
2022/01/06 13:41:35;;;;;;;;;4.50;4.00;;;;;8.54;39.20;98277.88;6209126;28;97155;-67
2022/01/06 13:44:51;;;;;;;;;5.00;4.40;;;;;8.33;39.53;98267.53;6196018;28;96575;-67
2022/01/06 13:47:58;;;;;;;;;7.00;6.00;;;;;8.37;39.54;98295.59;6212030;28;97090;-68
2022/01/06 13:51:11;;;;;;;;;7.00;6.00;;;;;8.23;39.47;98297.56;6206195;28;97145;-66
2022/01/06 13:54:17;;;;;;;;;7.00;6.00;;;;;8.33;39.49;98315.88;6197123;28;97208;-68
2022/01/06 13:57:21;;;;;;;;;4.00;4.00;;;;;8.23;38.06;98337.84;6197484;28;98458;-67
2022/01/06 14:00:24;;;;;;;;;3.60;3.60;;;;;8.19;36.96;98352.75;6203695;28;97724;-68
2022/01/06 14:03:31;;;;;;;;;4.00;4.00;;;;;8.19;36.35;98358.13;6203333;28;96586;-67
2022/01/06 14:06:35;;;;;;;;;4.00;2.40;;;;;8.14;36.51;98379.44;6202370;28;97443;-66
2022/01/06 14:09:40;;;;;;;;;4.00;4.00;;;;;7.91;36.48;98377.34;6202806;28;96624;-66
2022/01/06 14:12:43;;;;;;;;;3.60;3.60;;;;;7.93;36.64;98380.59;6197379;28;97591;-67
2022/01/06 14:15:47;;;;;;;;;4.40;3.00;;;;;7.97;35.41;98395.22;6201381;28;96629;-66
2022/01/06 14:18:50;;;;;;;;;5.00;5.00;;;;;7.76;33.96;98409.84;6204372;28;97512;-67
2022/01/06 14:21:53;;;;;;;;;2.00;2.00;;;;;7.62;33.50;98428.91;6222823;27;97239;-66
2022/01/06 14:24:58;;;;;;;;;3.00;3.00;;;;;7.43;32.97;98424.44;6211422;28;96680;-67
2022/01/06 14:28:02;;;;;;;;;4.00;4.00;;;;;7.23;33.28;98436.06;6209974;28;96690;-68
2022/01/06 14:31:06;;;;;;;;;4.00;3.20;;;;;7.08;33.81;98446.22;6209702;28;96842;-68
2022/01/06 14:34:10;;;;;;;;;4.00;3.40;;;;;6.90;33.39;98456.75;6211211;28;96485;-66
2022/01/06 14:37:13;;;;;;;;;3.00;3.00;;;;;6.93;34.30;98449.16;6212519;28;96557;-66
2022/01/06 14:40:18;;;;;;;;;3.00;3.00;;;;;6.66;33.73;98468.94;6217177;28;97012;-69
2022/01/06 14:43:42;;;;;;;;;3.00;3.00;;;;;6.61;34.27;98484.81;6210426;28;96871;-66
2022/01/06 14:46:46;;;;;;;;;3.00;3.00;;;;;6.55;34.15;98487.50;6210994;28;96972;-67